EGNR

Hawarden Airport

Airport
ICAO code
EGNR
IATA Code
CEG
Summary
ICAO Region
EUR
ICAO Territory
Location

,

Serving
Hawarden
Elevation
45 ft
Coordinates
53° 10' 41" N , 2° 58' 40" W
Metar
EGNR 211320Z 20012KT 9999 VCSH SCT009 BKN024 12/11 Q0995

Runways

Designator Length Width Surface Rops
5/23 2043 45 ASP Yes/Yes

Airport map

Aerial View

Airport accidents

SKYbrary Partners:

Safety knowledge contributed by: